Time;durP1;ratioP1;P1;durP2;ratioP2;P2;SDS_P1;SDS_P2;PMS_P1;PMS_P2;Temp;Humidity;BMP_temperature;BMP_pressure;BME280_temperature;BME280_humidity;BME280_pressure;Samples;Min_cycle;Max_cycle;Signal;HPM_P1;HPM_P2
2023/03/04 00:00:49;;;;;;;9.37;1.50;;;5.90;99.90;;;;;;5058215;28;20206;-49
2023/03/04 00:03:16;;;;;;;6.43;1.87;;;5.90;99.90;;;;;;5051790;28;20215;-55
2023/03/04 00:05:43;;;;;;;8.80;1.90;;;5.90;99.90;;;;;;5052811;28;20538;-49
2023/03/04 00:08:10;;;;;;;6.87;1.37;;;5.90;99.90;;;;;;5040480;28;20203;-56
2023/03/04 00:10:36;;;;;;;11.53;2.00;;;5.90;99.90;;;;;;5044535;28;20199;-49
2023/03/04 00:13:04;;;;;;;7.13;1.30;;;5.90;99.90;;;;;;5048705;28;20219;-54
2023/03/04 00:15:31;;;;;;;5.80;1.30;;;5.90;99.90;;;;;;5042230;28;20959;-49
2023/03/04 00:17:58;;;;;;;8.03;1.43;;;6.00;99.90;;;;;;5044966;28;20199;-48
2023/03/04 00:20:25;;;;;;;7.80;1.73;;;6.00;99.90;;;;;;5040850;28;20202;-48
2023/03/04 00:22:52;;;;;;;7.73;1.83;;;6.00;99.90;;;;;;5042077;28;20219;-50
2023/03/04 00:25:19;;;;;;;5.43;1.83;;;6.00;99.90;;;;;;5031958;28;20195;-57
2023/03/04 00:27:46;;;;;;;6.97;1.20;;;6.00;99.90;;;;;;5051897;28;20203;-49
2023/03/04 00:30:14;;;;;;;6.87;1.20;;;6.00;99.90;;;;;;5056594;28;20195;-54
2023/03/04 00:32:42;;;;;;;8.90;1.67;;;6.00;99.90;;;;;;5052011;28;20238;-50
2023/03/04 00:35:09;;;;;;;5.90;1.23;;;6.00;99.90;;;;;;5045254;28;20199;-53
2023/03/04 00:37:36;;;;;;;3.73;1.27;;;6.00;99.90;;;;;;5044684;28;20202;-50
2023/03/04 00:40:03;;;;;;;7.90;1.30;;;6.10;99.90;;;;;;5030695;28;20575;-52
2023/03/04 00:42:30;;;;;;;4.10;1.53;;;6.00;99.90;;;;;;5047494;28;20214;-52
2023/03/04 00:44:58;;;;;;;7.87;1.30;;;6.00;99.90;;;;;;5045245;28;20203;-51
2023/03/04 00:47:29;;;;;;;9.67;1.33;;;6.10;99.90;;;;;;5042087;28;20270;-48
2023/03/04 00:49:56;;;;;;;7.37;1.23;;;6.10;99.90;;;;;;5042903;28;20199;-52
2023/03/04 00:52:23;;;;;;;6.70;1.50;;;6.10;99.90;;;;;;5038930;28;20301;-48
2023/03/04 00:54:50;;;;;;;8.23;1.23;;;6.10;99.90;;;;;;5048536;28;20323;-48
2023/03/04 00:57:16;;;;;;;3.37;0.77;;;6.10;99.90;;;;;;5042017;28;20688;-54
2023/03/04 00:59:45;;;;;;;4.87;1.23;;;6.10;99.90;;;;;;5051076;28;20551;-48
2023/03/04 01:02:12;;;;;;;5.20;1.20;;;6.10;99.90;;;;;;5056328;28;20789;-55
2023/03/04 01:04:40;;;;;;;4.07;1.17;;;6.10;99.90;;;;;;5044691;28;20195;-49
2023/03/04 01:07:29;;;;;;;4.87;1.60;;;6.10;99.90;;;;;;5047737;28;20440;-48
2023/03/04 01:09:59;;;;;;;10.03;1.27;;;6.10;99.90;;;;;;5042996;28;20199;-51
2023/03/04 01:12:27;;;;;;;9.13;1.53;;;6.10;99.90;;;;;;5027475;28;20310;-49
2023/03/04 01:14:53;;;;;;;7.40;1.40;;;6.10;99.90;;;;;;5057219;28;20230;-48
2023/03/04 01:17:20;;;;;;;3.53;1.27;;;6.10;99.90;;;;;;5057231;28;20551;-53
2023/03/04 01:19:49;;;;;;;4.37;1.27;;;6.10;99.90;;;;;;5047429;28;20207;-48
2023/03/04 01:22:17;;;;;;;3.70;1.20;;;6.10;99.90;;;;;;5042747;28;20215;-49
2023/03/04 01:24:44;;;;;;;8.37;1.43;;;6.10;99.90;;;;;;5045011;28;20199;-49
2023/03/04 01:27:11;;;;;;;5.63;0.90;;;6.10;99.90;;;;;;5030932;28;20198;-52
2023/03/04 01:29:38;;;;;;;6.43;2.13;;;6.10;99.90;;;;;;5056458;28;20198;-49
2023/03/04 01:32:06;;;;;;;6.17;1.10;;;6.10;99.90;;;;;;5046057;28;20210;-55
2023/03/04 01:34:33;;;;;;;4.87;1.27;;;6.10;99.90;;;;;;5047834;28;20227;-52
2023/03/04 01:37:02;;;;;;;6.57;1.33;;;6.10;99.90;;;;;;5041288;28;20199;-55
2023/03/04 01:39:29;;;;;;;8.33;1.23;;;6.10;99.90;;;;;;5046689;28;20239;-49
2023/03/04 01:41:55;;;;;;;3.67;0.90;;;6.10;99.90;;;;;;5033901;28;20298;-55
2023/03/04 01:44:22;;;;;;;8.17;1.33;;;6.10;99.90;;;;;;5040746;28;20190;-50
2023/03/04 01:46:53;;;;;;;5.07;1.40;;;6.10;99.90;;;;;;5054469;28;20629;-52
2023/03/04 01:49:22;;;;;;;4.73;1.23;;;6.10;99.90;;;;;;5045891;28;20202;-53
2023/03/04 01:51:51;;;;;;;8.00;1.20;;;6.10;99.90;;;;;;5043201;28;20219;-52
2023/03/04 01:54:20;;;;;;;4.40;1.23;;;6.10;99.90;;;;;;5043862;28;22668;-48
2023/03/04 01:56:48;;;;;;;6.07;1.17;;;6.10;99.90;;;;;;5050825;28;20222;-49
2023/03/04 01:59:17;;;;;;;8.23;1.40;;;6.10;99.90;;;;;;5036657;28;20195;-52
2023/03/04 02:01:46;;;;;;;5.30;1.10;;;6.10;99.90;;;;;;5056738;28;20217;-52
2023/03/04 02:04:15;;;;;;;8.23;1.30;;;6.10;99.90;;;;;;5037906;28;20219;-50
2023/03/04 02:06:43;;;;;;;9.07;1.67;;;6.10;99.90;;;;;;5042323;28;20210;-52
2023/03/04 02:09:11;;;;;;;5.00;1.07;;;6.10;99.90;;;;;;5039298;28;20196;-54
2023/03/04 02:11:40;;;;;;;5.73;1.73;;;6.10;99.90;;;;;;5042449;28;20223;-49
2023/03/04 02:14:07;;;;;;;8.27;1.00;;;6.10;99.90;;;;;;5030275;28;20217;-56
2023/03/04 02:16:34;;;;;;;7.33;1.30;;;6.10;99.90;;;;;;5045728;28;20201;-52
2023/03/04 02:19:02;;;;;;;13.20;2.00;;;6.10;99.90;;;;;;5038967;28;20210;-56
2023/03/04 02:21:31;;;;;;;4.27;1.50;;;6.10;99.90;;;;;;5041982;28;20255;-54
2023/03/04 02:24:06;;;;;;;5.30;1.30;;;6.10;99.90;;;;;;5044308;28;20261;-54
2023/03/04 02:26:35;;;;;;;5.90;1.30;;;6.10;99.90;;;;;;5049020;28;20264;-49
2023/03/04 02:29:03;;;;;;;5.17;1.30;;;6.10;99.90;;;;;;5028571;28;20199;-55
2023/03/04 02:31:32;;;;;;;8.87;2.57;;;6.10;99.90;;;;;;5047562;28;20261;-50
2023/03/04 02:34:02;;;;;;;9.60;1.70;;;6.10;99.90;;;;;;5042840;28;20219;-53
2023/03/04 02:36:30;;;;;;;9.20;1.90;;;6.10;99.90;;;;;;5040655;28;20207;-52
2023/03/04 02:39:02;;;;;;;6.63;1.20;;;6.10;99.90;;;;;;5043034;28;20245;-56
2023/03/04 02:41:53;;;;;;;6.30;1.53;;;6.10;99.90;;;;;;5054004;28;20229;-55
2023/03/04 02:44:24;;;;;;;7.07;1.23;;;6.10;99.90;;;;;;5058244;28;20191;-53
2023/03/04 02:46:52;;;;;;;7.37;1.50;;;6.10;99.90;;;;;;5038472;28;20210;-53
2023/03/04 02:49:21;;;;;;;5.87;1.20;;;6.10;99.90;;;;;;5047510;28;20190;-53
2023/03/04 02:51:51;;;;;;;8.60;1.23;;;6.10;99.90;;;;;;5064350;28;20232;-52
2023/03/04 02:54:20;;;;;;;6.93;1.20;;;6.10;99.90;;;;;;5058785;28;20235;-52
2023/03/04 02:56:48;;;;;;;8.80;1.60;;;6.10;99.90;;;;;;5051350;28;20356;-53
2023/03/04 02:59:18;;;;;;;9.07;1.73;;;6.10;99.90;;;;;;5041949;28;20947;-54
2023/03/04 03:01:46;;;;;;;9.27;1.80;;;6.10;99.90;;;;;;5035690;28;20230;-53
2023/03/04 03:04:13;;;;;;;3.77;1.53;;;6.10;99.90;;;;;;5049654;28;20278;-54
2023/03/04 03:06:41;;;;;;;5.03;1.23;;;6.10;99.90;;;;;;5046318;28;20238;-53
2023/03/04 03:09:08;;;;;;;4.07;1.33;;;6.10;99.90;;;;;;5042057;28;20233;-54
2023/03/04 03:11:36;;;;;;;7.57;1.73;;;6.10;99.90;;;;;;5044237;28;20325;-51
2023/03/04 03:14:03;;;;;;;6.30;1.50;;;6.10;99.90;;;;;;5041533;28;20305;-55
2023/03/04 03:16:31;;;;;;;6.43;1.63;;;6.10;99.90;;;;;;5041428;28;20293;-54
2023/03/04 03:18:59;;;;;;;8.53;1.80;;;6.10;99.90;;;;;;5052385;28;20196;-57
2023/03/04 03:21:25;;;;;;;6.23;1.37;;;6.10;99.90;;;;;;5044291;28;20272;-52
2023/03/04 03:23:55;;;;;;;6.97;1.13;;;6.10;99.90;;;;;;5045071;28;20206;-55
2023/03/04 03:26:42;;;;;;;8.43;1.37;;;6.10;99.90;;;;;;5057699;28;20296;-54
2023/03/04 03:29:09;;;;;;;5.47;0.90;;;6.10;99.90;;;;;;5040601;28;20207;-51
2023/03/04 03:31:37;;;;;;;8.63;2.13;;;6.20;99.90;;;;;;5033134;28;20246;-57
2023/03/04 03:34:06;;;;;;;4.07;1.20;;;6.20;99.90;;;;;;5045115;28;20216;-50
2023/03/04 03:36:33;;;;;;;6.97;1.23;;;6.20;99.90;;;;;;5049021;28;20199;-57
2023/03/04 03:39:01;;;;;;;5.00;1.07;;;6.20;99.90;;;;;;5043203;28;20650;-50
2023/03/04 03:41:27;;;;;;;5.43;1.50;;;6.20;99.90;;;;;;5043979;28;20215;-56
2023/03/04 03:43:54;;;;;;;9.63;1.33;;;6.20;99.90;;;;;;5042887;28;20200;-54
2023/03/04 03:46:21;;;;;;;9.13;1.43;;;6.20;99.90;;;;;;5045478;28;20207;-55
2023/03/04 03:48:49;;;;;;;4.90;1.40;;;6.20;99.90;;;;;;5040708;28;20203;-52
2023/03/04 03:51:16;;;;;;;5.73;1.53;;;6.20;99.90;;;;;;5049868;28;20202;-50
2023/03/04 03:53:43;;;;;;;6.83;1.47;;;6.20;99.90;;;;;;5044198;28;20218;-51
2023/03/04 03:56:10;;;;;;;10.47;1.33;;;6.20;99.90;;;;;;5048744;28;20275;-52
2023/03/04 03:58:37;;;;;;;9.87;1.50;;;6.10;99.90;;;;;;5041895;28;20490;-54
2023/03/04 04:01:04;;;;;;;5.43;1.23;;;6.10;99.90;;;;;;5044547;28;20196;-54
2023/03/04 04:03:31;;;;;;;6.37;1.63;;;6.10;99.90;;;;;;5030362;28;20204;-54
2023/03/04 04:05:59;;;;;;;7.60;1.43;;;6.10;99.90;;;;;;5049967;28;20272;-53
2023/03/04 04:08:47;;;;;;;9.30;1.60;;;6.10;99.90;;;;;;5045808;28;20291;-51
2023/03/04 04:11:14;;;;;;;7.97;1.73;;;6.10;99.90;;;;;;5050180;28;20199;-53
2023/03/04 04:14:03;;;;;;;8.90;1.77;;;6.10;99.90;;;;;;5044316;28;20376;-51
2023/03/04 04:16:30;;;;;;;5.33;1.57;;;6.10;99.90;;;;;;5042417;28;20200;-57
2023/03/04 04:18:57;;;;;;;6.53;1.30;;;6.10;99.90;;;;;;5030248;28;20218;-53
2023/03/04 04:21:25;;;;;;;6.03;1.33;;;6.10;99.90;;;;;;5052698;28;20286;-55
2023/03/04 04:23:52;;;;;;;7.10;1.50;;;6.10;99.90;;;;;;5048266;28;20269;-52
2023/03/04 04:26:18;;;;;;;6.30;1.60;;;6.10;99.90;;;;;;5055478;28;20534;-50
2023/03/04 04:28:45;;;;;;;3.63;1.27;;;6.10;99.90;;;;;;5040618;28;20191;-50
2023/03/04 04:31:12;;;;;;;5.70;1.40;;;6.10;99.90;;;;;;5044706;28;20207;-53
2023/03/04 04:33:39;;;;;;;6.57;1.77;;;6.10;99.90;;;;;;5040671;28;20544;-56
2023/03/04 04:36:08;;;;;;;11.83;1.90;;;6.10;99.90;;;;;;5033362;28;20245;-54
2023/03/04 04:38:36;;;;;;;8.20;1.37;;;6.10;99.90;;;;;;5049921;28;20199;-55
2023/03/04 04:41:04;;;;;;;7.07;1.27;;;6.20;99.90;;;;;;5050642;28;20199;-50
2023/03/04 04:43:31;;;;;;;12.17;1.63;;;6.20;99.90;;;;;;5048986;28;20279;-57
2023/03/04 04:46:20;;;;;;;6.97;1.57;;;6.20;99.90;;;;;;5050630;28;20210;-54
2023/03/04 04:49:09;;;;;;;11.10;1.67;;;6.20;99.90;;;;;;5059745;28;20209;-53
2023/03/04 04:51:38;;;;;;;9.33;1.50;;;6.30;99.90;;;;;;5038260;28;20219;-53
2023/03/04 04:54:06;;;;;;;8.90;1.60;;;6.30;99.90;;;;;;5055113;28;20276;-51
2023/03/04 04:56:33;;;;;;;14.67;1.80;;;6.20;99.90;;;;;;5048414;28;20211;-56
2023/03/04 04:59:02;;;;;;;4.70;1.90;;;6.20;99.90;;;;;;5042913;28;20200;-53
2023/03/04 05:01:29;;;;;;;7.40;1.50;;;6.20;99.90;;;;;;5039178;28;20230;-52
2023/03/04 05:03:56;;;;;;;10.80;2.17;;;6.20;99.90;;;;;;5055024;28;20206;-49
2023/03/04 05:06:24;;;;;;;6.87;1.60;;;6.20;99.90;;;;;;5040879;28;20207;-56
2023/03/04 05:08:54;;;;;;;8.67;2.87;;;6.20;99.90;;;;;;5048306;28;20287;-50
2023/03/04 05:11:22;;;;;;;8.40;1.60;;;6.10;99.90;;;;;;5041773;28;20592;-55
2023/03/04 05:13:49;;;;;;;9.97;1.70;;;6.10;99.90;;;;;;5048142;28;20206;-52
2023/03/04 05:16:17;;;;;;;6.07;1.73;;;6.10;99.90;;;;;;5051957;28;20238;-54
2023/03/04 05:18:44;;;;;;;4.90;1.27;;;6.10;99.90;;;;;;5040545;28;20967;-50
2023/03/04 05:21:11;;;;;;;12.80;2.83;;;6.10;99.90;;;;;;5033630;28;20762;-55
2023/03/04 05:23:40;;;;;;;8.77;2.43;;;6.10;99.90;;;;;;5044512;28;20204;-52
2023/03/04 05:26:13;;;;;;;7.83;1.70;;;6.10;99.90;;;;;;5046669;28;20195;-53
2023/03/04 05:28:41;;;;;;;8.07;2.20;;;6.10;99.90;;;;;;5040374;28;20887;-53
2023/03/04 05:31:08;;;;;;;12.83;2.47;;;6.00;99.90;;;;;;5043755;28;20577;-52
2023/03/04 05:33:36;;;;;;;12.93;2.13;;;6.00;99.90;;;;;;5043198;28;20191;-53
2023/03/04 05:36:04;;;;;;;8.93;1.97;;;6.00;99.90;;;;;;5035947;28;20215;-51
2023/03/04 05:38:30;;;;;;;9.83;2.23;;;6.00;99.90;;;;;;5045890;28;20934;-48
2023/03/04 05:40:58;;;;;;;11.77;2.30;;;6.00;99.90;;;;;;5060219;28;20244;-49
2023/03/04 05:43:26;;;;;;;12.13;3.40;;;6.00;99.90;;;;;;5054547;28;20229;-53
2023/03/04 05:45:55;;;;;;;12.70;2.40;;;6.00;99.90;;;;;;5048528;28;20204;-48
2023/03/04 05:48:22;;;;;;;11.57;2.43;;;5.90;99.90;;;;;;5050257;28;20203;-55
2023/03/04 05:50:54;;;;;;;14.70;2.80;;;6.00;99.90;;;;;;5033317;28;20218;-51
2023/03/04 05:53:20;;;;;;;11.53;2.33;;;6.00;99.90;;;;;;5046047;28;20215;-55
2023/03/04 05:55:48;;;;;;;11.57;2.60;;;6.00;99.90;;;;;;5049883;28;20217;-50
2023/03/04 05:58:16;;;;;;;17.13;2.37;;;6.00;99.90;;;;;;5044003;28;20210;-56
2023/03/04 06:00:43;;;;;;;12.17;2.10;;;5.90;99.90;;;;;;5039422;28;20449;-49
2023/03/04 06:03:15;;;;;;;13.33;2.30;;;5.90;99.90;;;;;;5055864;28;20232;-54
2023/03/04 06:05:41;;;;;;;14.00;2.63;;;5.90;99.90;;;;;;5051398;28;20257;-48
2023/03/04 06:08:08;;;;;;;8.77;2.00;;;5.90;99.90;;;;;;5033363;28;20254;-53
2023/03/04 06:10:35;;;;;;;14.97;3.23;;;5.90;99.90;;;;;;5044734;28;20199;-51
2023/03/04 06:13:01;;;;;;;15.57;2.40;;;5.90;99.90;;;;;;5041700;28;20246;-52
2023/03/04 06:15:28;;;;;;;9.60;2.20;;;5.90;99.90;;;;;;5055762;28;20214;-55
2023/03/04 06:17:55;;;;;;;11.00;2.50;;;5.90;99.90;;;;;;5047176;28;20248;-51
2023/03/04 06:20:23;;;;;;;17.73;2.80;;;5.90;99.90;;;;;;5044362;28;20196;-54
2023/03/04 06:22:51;;;;;;;16.00;3.17;;;5.90;99.90;;;;;;5032236;28;20223;-49
2023/03/04 06:25:18;;;;;;;18.03;3.03;;;5.80;99.90;;;;;;5053431;28;20668;-54
2023/03/04 06:27:45;;;;;;;14.10;2.77;;;5.80;99.90;;;;;;5044591;28;20261;-51
2023/03/04 06:30:13;;;;;;;13.23;3.00;;;5.80;99.90;;;;;;5046791;28;20674;-54
2023/03/04 06:32:43;;;;;;;14.47;3.37;;;5.80;99.90;;;;;;5048442;28;20637;-54
2023/03/04 06:35:10;;;;;;;22.83;3.70;;;5.80;99.90;;;;;;5055854;28;20214;-54
2023/03/04 06:37:38;;;;;;;17.60;2.73;;;5.70;99.90;;;;;;5045720;28;20214;-48
2023/03/04 06:40:07;;;;;;;19.20;3.33;;;5.70;99.90;;;;;;5039625;28;20689;-53
2023/03/04 06:42:34;;;;;;;13.60;3.03;;;5.70;99.90;;;;;;5051333;28;20222;-51
2023/03/04 06:45:01;;;;;;;19.77;3.33;;;5.70;99.90;;;;;;5054592;28;20199;-51
2023/03/04 06:47:28;;;;;;;12.30;3.03;;;5.70;99.90;;;;;;5053743;28;20854;-53
2023/03/04 06:49:55;;;;;;;7.57;2.00;;;5.60;99.90;;;;;;5053199;28;20677;-50
2023/03/04 06:52:22;;;;;;;14.40;2.87;;;5.60;99.90;;;;;;5044755;28;20238;-55
2023/03/04 06:54:50;;;;;;;12.37;2.50;;;5.60;99.90;;;;;;5045169;28;20226;-49
2023/03/04 06:57:16;;;;;;;11.63;2.03;;;5.60;99.90;;;;;;5048590;28;20241;-55
2023/03/04 07:00:03;;;;;;;12.70;2.67;;;5.60;99.90;;;;;;5046923;28;20697;-51
2023/03/04 07:02:30;;;;;;;12.27;2.57;;;5.60;99.90;;;;;;5044272;28;20215;-50
2023/03/04 07:04:57;;;;;;;13.90;2.17;;;5.50;99.90;;;;;;5060172;28;20248;-49
2023/03/04 07:07:25;;;;;;;14.27;1.70;;;5.50;99.90;;;;;;5042908;28;20207;-55
2023/03/04 07:09:53;;;;;;;10.30;2.13;;;5.50;99.90;;;;;;5058490;28;20365;-49
2023/03/04 07:12:20;;;;;;;13.93;2.00;;;5.50;99.90;;;;;;5035066;28;20214;-55
2023/03/04 07:14:47;;;;;;;11.97;1.70;;;5.50;99.90;;;;;;5055184;28;20983;-50
2023/03/04 07:17:14;;;;;;;11.87;2.27;;;5.50;99.90;;;;;;5051999;28;20282;-54
2023/03/04 07:19:42;;;;;;;8.23;2.53;;;5.50;99.90;;;;;;5051706;28;20443;-49
2023/03/04 07:22:09;;;;;;;11.20;2.47;;;5.50;99.90;;;;;;5047644;28;20316;-53
2023/03/04 07:24:36;;;;;;;12.77;2.37;;;5.50;99.90;;;;;;5051993;28;20269;-52
2023/03/04 07:27:04;;;;;;;12.17;2.00;;;5.50;99.90;;;;;;5042673;28;20207;-51
2023/03/04 07:29:31;;;;;;;13.67;2.67;;;5.50;99.90;;;;;;5049379;28;20953;-54
2023/03/04 07:31:57;;;;;;;10.77;2.10;;;5.50;99.90;;;;;;5052673;28;20559;-48
2023/03/04 07:34:24;;;;;;;11.77;2.50;;;5.50;99.90;;;;;;5047414;28;20241;-55
2023/03/04 07:36:51;;;;;;;12.73;2.37;;;5.50;99.90;;;;;;5046745;28;20219;-51
2023/03/04 07:39:18;;;;;;;9.27;2.43;;;5.50;99.90;;;;;;5047871;28;20241;-51
2023/03/04 07:41:44;;;;;;;8.70;2.13;;;5.50;99.90;;;;;;5041092;28;20219;-49
2023/03/04 07:44:13;;;;;;;17.33;3.03;;;5.50;99.90;;;;;;5043163;28;20194;-53
2023/03/04 07:46:40;;;;;;;12.73;2.77;;;5.50;99.90;;;;;;5055173;28;20284;-51
2023/03/04 07:49:07;;;;;;;16.07;2.90;;;5.50;99.90;;;;;;5050941;28;20596;-52
2023/03/04 07:51:34;;;;;;;9.80;2.53;;;5.50;99.90;;;;;;5047206;28;20230;-54
2023/03/04 07:54:01;;;;;;;20.37;3.57;;;5.50;99.90;;;;;;5042185;28;20210;-50
2023/03/04 07:56:30;;;;;;;8.83;2.10;;;5.50;99.90;;;;;;5028395;28;20768;-54
2023/03/04 07:58:58;;;;;;;12.03;3.10;;;5.50;99.90;;;;;;5042351;28;20241;-53
2023/03/04 08:01:28;;;;;;;20.70;3.00;;;5.40;99.90;;;;;;5053729;28;20222;-53
2023/03/04 08:03:55;;;;;;;14.47;3.27;;;5.50;99.90;;;;;;5047100;28;20926;-53
2023/03/04 08:06:23;;;;;;;14.37;2.73;;;5.40;99.90;;;;;;5055848;28;20716;-52
2023/03/04 08:08:50;;;;;;;15.10;3.30;;;5.40;99.90;;;;;;5038481;28;20206;-52
2023/03/04 08:11:18;;;;;;;15.27;2.93;;;5.40;99.90;;;;;;5043405;28;20195;-51
2023/03/04 08:13:46;;;;;;;14.10;2.93;;;5.40;99.90;;;;;;5032011;28;20207;-52
2023/03/04 08:16:14;;;;;;;11.80;2.40;;;5.50;99.90;;;;;;5042514;28;20545;-47
2023/03/04 08:18:42;;;;;;;12.43;3.10;;;5.50;99.90;;;;;;5041718;28;20682;-58
2023/03/04 08:21:11;;;;;;;18.30;3.27;;;5.50;99.90;;;;;;5044479;28;20295;-49
2023/03/04 08:23:40;;;;;;;15.70;3.17;;;5.50;99.90;;;;;;5036909;28;20207;-57
2023/03/04 08:26:09;;;;;;;15.00;2.73;;;5.50;99.90;;;;;;5055650;28;20198;-48
2023/03/04 08:28:36;;;;;;;11.73;2.70;;;5.50;99.90;;;;;;5029697;28;20678;-57
2023/03/04 08:31:03;;;;;;;13.13;2.53;;;5.40;99.90;;;;;;5041894;28;20912;-47
2023/03/04 08:33:31;;;;;;;15.77;2.70;;;5.40;99.90;;;;;;5061130;28;20203;-58
2023/03/04 08:35:59;;;;;;;16.83;3.27;;;5.50;99.90;;;;;;5040491;28;20215;-47
2023/03/04 08:38:26;;;;;;;23.57;3.53;;;5.40;99.90;;;;;;5056050;28;20200;-55
2023/03/04 08:40:54;;;;;;;12.97;2.90;;;5.50;99.90;;;;;;5040409;28;20199;-50
2023/03/04 08:43:21;;;;;;;17.83;3.30;;;5.40;99.90;;;;;;5026135;28;20215;-47
2023/03/04 08:46:07;;;;;;;16.20;2.97;;;5.50;99.90;;;;;;5049638;28;20732;-58
2023/03/04 08:48:34;;;;;;;15.57;2.63;;;5.40;99.90;;;;;;5037810;28;20230;-50
2023/03/04 08:51:08;;;;;;;25.63;3.70;;;5.40;99.90;;;;;;5047071;28;20245;-52
2023/03/04 08:53:34;;;;;;;13.87;2.73;;;5.40;99.90;;;;;;5047758;28;20467;-47
2023/03/04 08:56:02;;;;;;;13.83;2.83;;;5.40;99.90;;;;;;5039660;28;20993;-59
2023/03/04 08:58:29;;;;;;;13.57;3.97;;;5.40;99.90;;;;;;5030534;28;20210;-47
2023/03/04 09:00:55;;;;;;;10.90;3.30;;;5.40;99.90;;;;;;5039512;28;20532;-59
2023/03/04 09:03:22;;;;;;;15.67;3.80;;;5.40;99.90;;;;;;5041311;28;20248;-46
2023/03/04 09:06:13;;;;;;;16.70;2.90;;;5.40;99.90;;;;;;5040060;28;20333;-47
2023/03/04 09:08:41;;;;;;;11.30;3.17;;;5.40;99.90;;;;;;5047782;28;20195;-58
2023/03/04 09:11:07;;;;;;;16.93;3.27;;;5.40;99.90;;;;;;5046461;28;20218;-47
2023/03/04 09:13:35;;;;;;;8.30;2.17;;;5.40;99.90;;;;;;5047666;28;20577;-60
2023/03/04 09:16:02;;;;;;;10.80;2.33;;;5.40;99.90;;;;;;5039565;28;20219;-47
2023/03/04 09:18:29;;;;;;;12.57;3.80;;;5.40;99.90;;;;;;5048663;28;20224;-46
2023/03/04 09:20:56;;;;;;;16.30;2.77;;;5.40;99.90;;;;;;5048573;28;20202;-50
2023/03/04 09:23:24;;;;;;;11.93;2.90;;;5.40;99.90;;;;;;5049926;28;20589;-47
2023/03/04 09:25:51;;;;;;;13.47;3.53;;;5.50;99.90;;;;;;5046130;28;20183;-51
2023/03/04 09:28:19;;;;;;;17.90;4.03;;;5.50;99.90;;;;;;5045991;28;20198;-59
2023/03/04 09:30:46;;;;;;;18.33;3.20;;;5.50;99.90;;;;;;5033538;28;20280;-47
2023/03/04 09:33:14;;;;;;;9.87;1.70;;;5.50;99.90;;;;;;5043660;28;20223;-56
2023/03/04 09:35:41;;;;;;;10.57;2.93;;;5.50;99.90;;;;;;5047771;28;20237;-52
2023/03/04 09:38:08;;;;;;;10.07;2.87;;;5.50;99.90;;;;;;5050836;28;20198;-46
2023/03/04 09:40:41;;;;;;;12.60;3.23;;;5.50;99.90;;;;;;5043950;28;20183;-46
2023/03/04 09:43:17;;;;;;;9.97;2.60;;;5.50;99.90;;;;;;5053025;28;20705;-46
2023/03/04 09:45:50;;;;;;;17.43;3.03;;;5.50;99.90;;;;;;5033062;28;20191;-46
2023/03/04 09:48:21;;;;;;;19.03;3.37;;;5.50;99.90;;;;;;5046891;28;20206;-56
2023/03/04 09:50:58;;;;;;;16.80;2.90;;;5.60;99.90;;;;;;5040858;28;20529;-46
2023/03/04 09:53:34;;;;;;;20.37;4.07;;;5.60;99.90;;;;;;5043612;28;20226;-57
2023/03/04 09:56:05;;;;;;;9.00;3.40;;;5.60;99.90;;;;;;5048724;28;20214;-47
2023/03/04 09:58:43;;;;;;;9.13;3.10;;;5.60;99.90;;;;;;5051635;28;20648;-46
2023/03/04 10:01:16;;;;;;;14.80;3.50;;;5.60;99.90;;;;;;5040756;28;20252;-55
2023/03/04 10:03:47;;;;;;;19.00;3.80;;;5.50;99.90;;;;;;5045211;28;20393;-49
2023/03/04 10:06:17;;;;;;;15.30;2.77;;;5.60;99.90;;;;;;5046392;28;20570;-58
2023/03/04 10:08:51;;;;;;;18.17;3.43;;;5.60;99.90;;;;;;5047890;28;20563;-55
2023/03/04 10:11:25;;;;;;;19.43;3.73;;;5.70;99.90;;;;;;5054765;28;20914;-48
2023/03/04 10:14:00;;;;;;;13.97;3.13;;;5.70;99.90;;;;;;5043074;28;20677;-52
2023/03/04 10:16:33;;;;;;;18.07;2.90;;;5.80;99.90;;;;;;5036639;28;20241;-47
2023/03/04 10:19:10;;;;;;;20.50;3.20;;;5.70;99.90;;;;;;5041855;28;20190;-56
2023/03/04 10:21:41;;;;;;;22.57;3.80;;;5.80;99.90;;;;;;5043866;28;20222;-47
2023/03/04 10:24:12;;;;;;;17.17;3.83;;;5.80;99.90;;;;;;5044235;28;20294;-47
2023/03/04 10:26:44;;;;;;;17.33;3.40;;;5.90;99.90;;;;;;5050074;28;20534;-48
2023/03/04 10:29:15;;;;;;;12.60;3.83;;;5.90;99.90;;;;;;5045581;28;20196;-51
2023/03/04 10:31:42;;;;;;;15.57;2.63;;;6.00;99.90;;;;;;5049397;28;20230;-48
2023/03/04 10:34:11;;;;;;;15.73;3.30;;;6.00;99.90;;;;;;5031531;28;20209;-47
2023/03/04 10:36:46;;;;;;;11.43;3.40;;;6.00;99.90;;;;;;5051239;28;20215;-47
2023/03/04 10:39:19;;;;;;;12.67;3.13;;;6.00;99.90;;;;;;5045715;28;20212;-50
2023/03/04 10:41:55;;;;;;;16.57;3.27;;;6.00;99.90;;;;;;5055543;28;20226;-55
2023/03/04 10:44:23;;;;;;;11.50;2.73;;;6.00;99.90;;;;;;5049024;28;20199;-47
2023/03/04 10:46:53;;;;;;;14.67;3.13;;;6.10;99.90;;;;;;5043844;28;20218;-55
2023/03/04 10:49:21;;;;;;;13.53;2.87;;;6.10;99.90;;;;;;5040215;28;20428;-50
2023/03/04 10:51:50;;;;;;;9.30;3.00;;;6.20;99.90;;;;;;5042206;28;20219;-53
2023/03/04 10:54:28;;;;;;;10.57;2.77;;;6.20;99.90;;;;;;5042329;28;20370;-47
2023/03/04 10:56:59;;;;;;;14.60;2.90;;;6.20;99.90;;;;;;5040282;28;20222;-55
2023/03/04 10:59:38;;;;;;;14.27;3.43;;;6.20;99.90;;;;;;5035814;28;20200;-48
2023/03/04 11:02:19;;;;;;;14.13;2.53;;;6.20;99.90;;;;;;5055559;28;20210;-49
2023/03/04 11:04:52;;;;;;;14.50;3.30;;;6.20;99.90;;;;;;5042797;28;20215;-51
2023/03/04 11:07:20;;;;;;;16.07;2.97;;;6.20;99.90;;;;;;5047100;28;20856;-54
2023/03/04 11:09:46;;;;;;;15.13;3.33;;;6.30;99.90;;;;;;5038450;28;20222;-47
2023/03/04 11:12:16;;;;;;;14.33;3.03;;;6.40;99.90;;;;;;5043823;28;20228;-56
2023/03/04 11:14:48;;;;;;;14.33;2.60;;;6.40;99.90;;;;;;5046062;28;20192;-50
2023/03/04 11:17:23;;;;;;;10.63;1.80;;;6.40;99.90;;;;;;5040372;28;20598;-53
2023/03/04 11:19:55;;;;;;;13.97;3.57;;;6.40;99.90;;;;;;5053276;28;20206;-48
2023/03/04 11:22:24;;;;;;;7.63;2.10;;;6.40;99.90;;;;;;5048141;28;20247;-53
2023/03/04 11:24:58;;;;;;;13.17;2.67;;;6.40;99.90;;;;;;5052179;28;20221;-51
2023/03/04 11:27:53;;;;;;;18.43;3.07;;;6.40;99.90;;;;;;5050993;28;20211;-47
2023/03/04 11:30:28;;;;;;;10.67;2.47;;;6.50;99.90;;;;;;5052734;28;20205;-55
2023/03/04 11:33:05;;;;;;;12.83;2.40;;;6.40;99.90;;;;;;5037615;28;20233;-50
2023/03/04 11:35:39;;;;;;;13.70;3.17;;;6.40;99.90;;;;;;5043166;28;20204;-49
2023/03/04 11:38:13;;;;;;;10.03;2.60;;;6.50;99.90;;;;;;5045452;28;20219;-55
2023/03/04 11:41:05;;;;;;;15.77;3.13;;;6.40;99.90;;;;;;5042537;28;20226;-51
2023/03/04 11:43:36;;;;;;;18.87;3.27;;;6.50;99.90;;;;;;5054478;28;20210;-54
2023/03/04 11:46:31;;;;;;;6.80;1.97;;;6.40;99.90;;;;;;5047404;28;21115;-53
2023/03/04 11:49:21;;;;;;;12.37;2.87;;;6.50;99.90;;;;;;5028946;28;20250;-55
2023/03/04 11:51:56;;;;;;;9.90;2.53;;;6.60;99.90;;;;;;5037645;28;20261;-55
2023/03/04 11:54:32;;;;;;;11.00;2.83;;;6.80;99.90;;;;;;5044249;28;20312;-50
2023/03/04 11:57:02;;;;;;;13.03;2.60;;;6.90;99.90;;;;;;5040073;28;20712;-55
2023/03/04 11:59:41;;;;;;;16.93;3.27;;;7.00;99.90;;;;;;5052817;28;20194;-53
2023/03/04 12:02:19;;;;;;;13.47;3.00;;;7.00;99.90;;;;;;5051819;28;20238;-48
2023/03/04 12:05:20;;;;;;;11.63;2.63;;;7.00;99.90;;;;;;5038001;28;20203;-54
2023/03/04 12:08:07;;;;;;;14.53;2.60;;;7.10;99.90;;;;;;5043497;28;20202;-53
2023/03/04 12:10:41;;;;;;;9.17;2.40;;;7.20;99.90;;;;;;5041127;28;20327;-54
2023/03/04 12:13:23;;;;;;;10.00;2.63;;;7.20;99.90;;;;;;5050816;28;20237;-56
2023/03/04 12:16:01;;;;;;;8.03;3.10;;;7.10;99.90;;;;;;5053861;28;20753;-49
2023/03/04 12:18:44;;;;;;;9.93;2.17;;;7.00;99.90;;;;;;5044290;28;20210;-51
2023/03/04 12:21:27;;;;;;;11.20;2.87;;;6.90;99.90;;;;;;5036688;28;20213;-53
2023/03/04 12:24:17;;;;;;;14.60;3.20;;;6.90;99.90;;;;;;5053507;28;20210;-49
2023/03/04 12:26:49;;;;;;;13.37;1.97;;;6.90;99.90;;;;;;5051434;28;20203;-49
2023/03/04 12:29:28;;;;;;;12.97;2.37;;;6.90;99.90;;;;;;5050435;28;20294;-53
2023/03/04 12:32:03;;;;;;;12.80;2.47;;;6.90;99.90;;;;;;5052170;28;20287;-52
2023/03/04 12:34:34;;;;;;;11.87;2.73;;;7.00;99.90;;;;;;5048645;28;21002;-48
2023/03/04 12:37:25;;;;;;;11.07;2.50;;;6.90;99.90;;;;;;5042032;28;20203;-49
2023/03/04 12:40:16;;;;;;;13.00;2.33;;;7.00;99.90;;;;;;5053854;28;20543;-48
2023/03/04 12:42:57;;;;;;;13.13;2.20;;;7.00;99.90;;;;;;5041440;28;20233;-51
2023/03/04 12:45:32;;;;;;;10.07;2.23;;;7.00;99.90;;;;;;5045510;28;20210;-53
2023/03/04 12:48:07;;;;;;;13.27;2.97;;;7.00;99.90;;;;;;5046292;28;20553;-50
2023/03/04 12:50:41;;;;;;;5.43;1.37;;;7.10;99.90;;;;;;5034281;28;21052;-51
2023/03/04 12:53:25;;;;;;;11.30;2.20;;;7.10;99.90;;;;;;5042742;28;20221;-49
2023/03/04 12:55:55;;;;;;;7.93;2.00;;;7.00;99.90;;;;;;5040447;28;20197;-51
2023/03/04 12:58:44;;;;;;;7.10;2.47;;;7.10;99.90;;;;;;5041766;28;20241;-54
2023/03/04 13:01:18;;;;;;;7.63;1.90;;;7.00;99.90;;;;;;5033939;28;20880;-51
2023/03/04 13:03:54;;;;;;;17.00;3.60;;;7.00;99.90;;;;;;5044294;28;20230;-53
2023/03/04 13:06:31;;;;;;;11.17;2.43;;;7.00;99.90;;;;;;5026924;28;23917;-51